Time;durP1;ratioP1;P1;durP2;ratioP2;P2;SDS_P1;SDS_P2;PMS_P1;PMS_P2;Temp;Humidity;BMP_temperature;BMP_pressure;BME280_temperature;BME280_humidity;BME280_pressure;Samples;Min_cycle;Max_cycle;Signal;HPM_P1;HPM_P2
2023/06/25 00:01:32;;;;;;;10.63;5.87;;;;;;;21.67;57.98;99938.50;7725216;32;39596;-76
2023/06/25 00:05:49;;;;;;;9.70;5.93;;;;;;;21.44;58.94;99945.56;7738817;32;38041;-76
2023/06/25 00:10:06;;;;;;;8.93;5.28;;;;;;;21.42;58.66;99945.09;7738684;32;37054;-76
2023/06/25 00:14:22;;;;;;;10.35;6.20;;;;;;;21.63;57.84;99943.13;7739327;32;37724;-75
2023/06/25 00:18:39;;;;;;;10.30;5.55;;;;;;;21.37;59.26;99946.16;7739163;32;39556;-76
2023/06/25 00:22:56;;;;;;;9.55;5.62;;;;;;;21.50;58.93;99947.81;7738577;32;38180;-76
2023/06/25 00:27:22;;;;;;;9.63;5.20;;;;;;;21.58;58.65;99935.03;7738779;32;37238;-75
2023/06/25 00:31:39;;;;;;;9.13;5.82;;;;;;;21.68;58.25;99937.38;7738790;32;39392;-76
2023/06/25 00:35:58;;;;;;;11.05;5.80;;;;;;;21.72;58.21;99935.53;7738636;32;40109;-76
2023/06/25 00:40:14;;;;;;;8.77;5.80;;;;;;;21.66;58.44;99934.13;7738079;32;37865;-75
2023/06/25 00:44:31;;;;;;;10.27;5.53;;;;;;;21.48;58.95;99935.47;7736877;32;37147;-75
2023/06/25 00:48:47;;;;;;;11.20;5.97;;;;;;;21.55;58.72;99941.25;7738623;32;40207;-75
2023/06/25 00:53:08;;;;;;;8.68;5.53;;;;;;;21.40;59.48;99948.22;7724210;32;39780;-76
2023/06/25 00:57:27;;;;;;;10.88;5.87;;;;;;;21.53;58.98;99946.34;7738349;32;37660;-75
2023/06/25 01:01:54;;;;;;;9.65;5.70;;;;;;;21.50;59.34;99944.25;7738485;32;36118;-75
2023/06/25 01:06:29;;;;;;;10.85;5.43;;;;;;;21.56;59.39;99940.13;7725379;32;39964;-75
2023/06/25 01:10:46;;;;;;;9.15;5.47;;;;;;;21.55;59.22;99944.03;7737570;32;40760;-76
2023/06/25 01:15:03;;;;;;;8.82;5.90;;;;;;;21.63;59.22;99933.97;7724426;32;38646;-75
2023/06/25 01:19:19;;;;;;;9.85;5.60;;;;;;;21.60;59.11;99926.38;7738135;32;37884;-76
2023/06/25 01:23:36;;;;;;;8.88;5.12;;;;;;;21.53;59.43;99933.28;7738050;32;39440;-75
2023/06/25 01:27:52;;;;;;;8.23;5.30;;;;;;;21.64;58.78;99930.06;7724350;32;39633;-75
2023/06/25 01:32:09;;;;;;;9.85;5.68;;;;;;;21.70;58.41;99926.72;7738041;32;37952;-75
2023/06/25 01:36:25;;;;;;;9.52;5.45;;;;;;;21.59;59.56;99928.31;7737965;32;37126;-75
2023/06/25 01:40:42;;;;;;;9.85;5.32;;;;;;;21.74;59.05;99921.31;7737366;32;39357;-76
2023/06/25 01:44:58;;;;;;;9.48;5.20;;;;;;;21.65;59.36;99923.38;7723875;32;39611;-75
2023/06/25 01:49:15;;;;;;;8.32;4.68;;;;;;;21.57;60.03;99922.31;7737317;32;37977;-75
2023/06/25 01:53:46;;;;;;;11.27;5.37;;;;;;;21.60;60.04;99907.75;7736829;32;36944;-75
2023/06/25 01:58:03;;;;;;;8.27;5.07;;;;;;;21.67;59.99;99913.53;7737649;32;39634;-75
2023/06/25 02:02:19;;;;;;;8.48;4.87;;;;;;;21.78;59.63;99904.78;7737413;32;40472;-75
2023/06/25 02:06:36;;;;;;;8.43;5.20;;;;;;;21.77;59.58;99898.44;7737505;32;38056;-75
2023/06/25 02:10:52;;;;;;;8.35;4.68;;;;;;;21.73;59.37;99901.09;7737333;32;37097;-75
2023/06/25 02:15:09;;;;;;;10.35;5.37;;;;;;;21.60;60.24;99902.22;7737348;32;39177;-75
2023/06/25 02:19:25;;;;;;;10.30;5.00;;;;;;;21.63;60.28;99911.78;7737114;32;40039;-76
2023/06/25 02:23:41;;;;;;;7.93;4.95;;;;;;;21.60;60.56;99907.75;7736879;32;38610;-75
2023/06/25 02:27:58;;;;;;;7.87;4.97;;;;;;;21.57;60.65;99903.69;7736975;32;37195;-75
2023/06/25 02:32:14;;;;;;;8.70;5.37;;;;;;;21.55;60.68;99907.97;7736559;32;39435;-75
2023/06/25 02:36:30;;;;;;;7.82;4.90;;;;;;;21.57;60.34;99900.91;7736061;32;39673;-75
2023/06/25 02:40:47;;;;;;;9.05;5.68;;;;;;;21.45;60.95;99900.06;7736584;32;37974;-75
2023/06/25 02:45:04;;;;;;;9.63;5.87;;;;;;;21.47;60.69;99898.59;7736524;32;37058;-75
2023/06/25 02:49:20;;;;;;;9.48;5.40;;;;;;;21.40;60.93;99895.53;7736460;32;39447;-76
2023/06/25 02:53:36;;;;;;;9.68;5.65;;;;;;;21.46;60.71;99910.84;7736139;32;40594;-75
2023/06/25 02:57:53;;;;;;;11.88;5.62;;;;;;;21.43;61.01;99916.22;7722477;32;37973;-76
2023/06/25 03:02:09;;;;;;;10.30;5.90;;;;;;;21.34;61.31;99911.56;7707906;32;37033;-75
2023/06/25 03:06:26;;;;;;;9.52;5.40;;;;;;;21.38;61.09;99909.72;7710630;32;39393;-76
2023/06/25 03:10:42;;;;;;;10.57;6.43;;;;;;;21.44;60.73;99913.12;7732806;32;39684;-76
2023/06/25 03:14:59;;;;;;;10.35;5.90;;;;;;;21.34;61.16;99921.88;7739490;32;37856;-76
2023/06/25 03:19:15;;;;;;;10.18;5.80;;;;;;;21.35;61.18;99917.91;7739360;32;37387;-75
2023/06/25 03:23:31;;;;;;;9.18;5.53;;;;;;;21.45;61.24;99913.91;7739556;32;40078;-75
2023/06/25 03:27:48;;;;;;;9.90;6.05;;;;;;;21.43;61.30;99914.25;7739469;32;40815;-75
2023/06/25 03:32:05;;;;;;;9.73;6.10;;;;;;;21.33;61.75;99921.03;7739451;32;37478;-75
2023/06/25 03:36:22;;;;;;;9.68;5.65;;;;;;;21.55;60.92;99917.09;7739348;32;37855;-75
2023/06/25 03:40:40;;;;;;;9.48;5.70;;;;;;;21.31;61.77;99919.75;7739295;32;40019;-75
2023/06/25 03:44:56;;;;;;;10.32;6.12;;;;;;;21.40;61.94;99923.25;7739108;32;39956;-76
2023/06/25 03:49:12;;;;;;;12.82;5.95;;;;;;;21.36;62.07;99928.69;7738880;32;37550;-75
2023/06/25 03:53:30;;;;;;;10.13;5.78;;;;;;;21.38;61.76;99923.59;7738897;32;37115;-75
2023/06/25 03:57:46;;;;;;;10.27;5.97;;;;;;;21.41;61.53;99927.66;7739039;32;39439;-75
2023/06/25 04:02:03;;;;;;;10.27;6.28;;;;;;;21.34;61.65;99928.22;7739034;32;40602;-75
2023/06/25 04:06:20;;;;;;;11.95;6.15;;;;;;;21.22;61.68;99932.91;7739085;32;37908;-75
2023/06/25 04:10:38;;;;;;;11.82;6.07;;;;;;;21.42;61.34;99934.84;7738962;32;37891;-70
2023/06/25 04:14:54;;;;;;;10.48;6.15;;;;;;;21.38;62.09;99929.12;7739008;32;39015;-70
2023/06/25 04:19:11;;;;;;;10.65;6.05;;;;;;;21.47;62.42;99928.28;7738449;32;40787;-70
2023/06/25 04:23:27;;;;;;;10.65;5.55;;;;;;;21.65;61.69;99926.16;7737971;32;38035;-71
2023/06/25 04:27:43;;;;;;;8.15;5.07;;;;;;;21.83;61.31;99915.66;7738703;32;37128;-70
2023/06/25 04:32:01;;;;;;;8.50;5.05;;;;;;;21.86;61.22;99915.78;7738980;32;39368;-70
2023/06/25 04:36:19;;;;;;;8.98;5.55;;;;;;;21.87;60.99;99917.41;7738608;32;40968;-70
2023/06/25 04:40:36;;;;;;;8.07;5.20;;;;;;;22.02;60.20;99917.87;7738516;32;38710;-70
2023/06/25 04:44:52;;;;;;;8.90;5.12;;;;;;;22.02;59.94;99918.66;7738451;32;37360;-70
2023/06/25 04:49:10;;;;;;;11.80;5.10;;;;;;;21.99;59.86;99921.34;7737557;32;39353;-70
2023/06/25 04:53:27;;;;;;;10.57;5.55;;;;;;;22.02;59.84;99928.97;7738283;32;39945;-70
2023/06/25 04:57:43;;;;;;;9.63;5.72;;;;;;;21.95;60.37;99924.00;7738306;32;38658;-70
2023/06/25 05:02:00;;;;;;;12.98;6.12;;;;;;;21.61;61.49;99931.56;7738391;32;37090;-70
2023/06/25 05:06:16;;;;;;;9.35;5.55;;;;;;;21.88;61.28;99920.97;7738254;32;40568;-70
2023/06/25 05:10:32;;;;;;;9.25;5.85;;;;;;;22.03;61.02;99919.50;7738289;32;40556;-70
2023/06/25 05:14:48;;;;;;;10.65;6.43;;;;;;;21.86;61.74;99926.06;7738127;32;38469;-69
2023/06/25 05:19:05;;;;;;;9.52;6.22;;;;;;;22.13;60.82;99927.38;7735086;32;37305;-79
2023/06/25 05:23:21;;;;;;;11.80;6.55;;;;;;;22.17;60.91;99930.25;7737643;32;39463;-77
2023/06/25 05:27:38;;;;;;;8.82;5.10;;;;;;;22.25;60.37;99937.66;7737500;32;40028;-77
2023/06/25 05:31:58;;;;;;;9.80;5.20;;;;;;;22.44;60.48;99937.94;7738007;32;37963;-76
2023/06/25 05:36:16;;;;;;;8.52;5.22;;;;;;;22.69;59.67;99947.03;7737957;32;37836;-76
2023/06/25 05:40:32;;;;;;;10.57;4.80;;;;;;;22.60;58.70;99937.22;7737868;32;40036;-76
2023/06/25 05:44:49;;;;;;;7.22;4.32;;;;;;;22.67;58.59;99937.44;7737693;32;40827;-76
2023/06/25 05:49:05;;;;;;;8.35;4.25;;;;;;;22.80;57.63;99947.37;7736581;32;39476;-76
2023/06/25 05:53:24;;;;;;;7.45;4.35;;;;;;;22.85;57.74;99938.78;7737013;32;37290;-76
2023/06/25 05:57:41;;;;;;;6.22;4.32;;;;;;;22.91;58.49;99930.22;7737669;32;40114;-77
2023/06/25 06:01:57;;;;;;;6.50;4.20;;;;;;;23.19;57.34;99919.13;7723602;32;40001;-79
2023/06/25 06:06:14;;;;;;;8.93;4.20;;;;;;;23.20;57.20;99923.53;7723227;32;38615;-79
2023/06/25 06:10:30;;;;;;;6.10;3.95;;;;;;;23.53;56.68;99923.25;7737355;32;37408;-79
2023/06/25 06:14:46;;;;;;;6.47;3.75;;;;;;;23.25;55.79;99926.88;7737334;32;39855;-78
2023/06/25 06:19:03;;;;;;;8.27;3.75;;;;;;;23.37;56.33;99930.75;7736516;32;40062;-76
2023/06/25 06:23:19;;;;;;;8.35;4.45;;;;;;;22.97;56.83;99932.37;7736776;32;37980;-77
2023/06/25 06:27:35;;;;;;;8.32;3.62;;;;;;;22.76;57.84;99940.06;7736951;32;37708;-77
2023/06/25 06:31:52;;;;;;;9.48;4.30;;;;;;;23.24;56.89;99939.16;7736743;32;39300;-76
2023/06/25 06:36:08;;;;;;;6.07;3.50;;;;;;;23.40;56.30;99938.38;7736537;32;41283;-77
2023/06/25 06:40:25;;;;;;;3.92;2.65;;;;;;;23.54;56.33;99941.56;7736939;32;38133;-79
2023/06/25 06:44:41;;;;;;;4.43;2.92;;;;;;;23.51;55.18;99950.63;7739784;32;37808;-77
2023/06/25 06:48:57;;;;;;;4.40;2.58;;;;;;;23.67;55.64;99938.72;7739440;32;40108;-72
2023/06/25 06:53:13;;;;;;;6.37;3.35;;;;;;;23.81;54.57;99945.50;7739342;32;39917;-69
2023/06/25 06:57:30;;;;;;;5.10;2.67;;;;;;;23.95;53.78;99939.47;7739428;32;38756;-71
2023/06/25 07:01:46;;;;;;;6.22;2.90;;;;;;;24.10;54.35;99948.22;7739531;32;37070;-71
2023/06/25 07:06:02;;;;;;;7.80;3.72;;;;;;;24.10;53.63;99946.22;7739660;32;39001;-72
2023/06/25 07:10:19;;;;;;;6.82;3.70;;;;;;;23.56;55.78;99958.72;7739392;32;39955;-71
2023/06/25 07:14:35;;;;;;;6.00;3.45;;;;;;;23.59;56.18;99952.44;7736534;32;37990;-71
2023/06/25 07:18:51;;;;;;;5.78;3.50;;;;;;;23.62;57.02;99942.56;7739518;32;37758;-71
2023/06/25 07:23:08;;;;;;;5.72;3.60;;;;;;;23.89;55.91;99949.28;7739524;32;39423;-72
2023/06/25 07:27:24;;;;;;;6.12;3.40;;;;;;;23.80;55.06;99943.03;7739105;32;40830;-72
2023/06/25 07:31:40;;;;;;;3.85;2.78;;;;;;;23.90;56.04;99941.72;7739235;32;37740;-69
2023/06/25 07:35:56;;;;;;;5.37;2.80;;;;;;;24.28;53.02;99943.88;7738327;32;38554;-72
2023/06/25 07:40:13;;;;;;;5.05;2.00;;;;;;;24.64;51.42;99938.38;7729628;32;40214;-71
2023/06/25 07:44:29;;;;;;;4.32;1.98;;;;;;;24.61;51.05;99930.72;7712401;32;40008;-71
2023/06/25 07:48:48;;;;;;;3.65;2.10;;;;;;;24.79;49.64;99931.16;7712489;32;37405;-74
2023/06/25 07:53:04;;;;;;;2.72;1.62;;;;;;;25.06;50.22;99938.50;7725181;32;36782;-69
2023/06/25 07:57:21;;;;;;;7.18;1.73;;;;;;;25.53;48.16;99930.28;7739129;32;39807;-70
2023/06/25 08:01:37;;;;;;;4.45;1.83;;;;;;;25.63;47.05;99929.66;7739158;32;40160;-70
2023/06/25 08:05:53;;;;;;;2.92;1.75;;;;;;;25.70;47.37;99935.41;7738979;32;38024;-69
2023/06/25 08:10:09;;;;;;;2.05;1.60;;;;;;;26.03;45.41;99934.00;7738957;32;37039;-70
2023/06/25 08:14:26;;;;;;;2.90;1.95;;;;;;;26.12;45.35;99940.13;7738855;32;40198;-69
2023/06/25 08:18:42;;;;;;;4.47;1.85;;;;;;;26.19;44.23;99933.88;7738668;32;41273;-69
2023/06/25 08:22:58;;;;;;;3.42;1.95;;;;;;;25.88;43.91;99929.31;7738415;32;37655;-78
2023/06/25 08:27:14;;;;;;;4.10;1.62;;;;;;;26.20;43.30;99927.91;7736873;32;37649;-78
2023/06/25 08:31:31;;;;;;;2.40;1.83;;;;;;;26.43;42.27;99921.47;7738853;32;39468;-78
2023/06/25 08:35:47;;;;;;;4.37;1.70;;;;;;;26.72;42.38;99919.13;7738581;32;40819;-78
2023/06/25 08:40:04;;;;;;;4.10;1.85;;;;;;;26.42;41.87;99919.84;7728511;32;37950;-79
2023/06/25 08:44:20;;;;;;;3.92;1.95;;;;;;;26.82;40.72;99920.44;7713211;32;38001;-80
2023/06/25 08:48:38;;;;;;;3.17;1.73;;;;;;;27.15;41.67;99908.47;7736729;32;38978;-80
2023/06/25 08:52:55;;;;;;;2.67;1.60;;;;;;;27.05;39.65;99900.75;7736388;32;40567;-79
2023/06/25 08:57:12;;;;;;;3.65;1.80;;;;;;;27.26;39.98;99901.00;7736678;32;38018;-80
2023/06/25 09:01:28;;;;;;;2.95;1.50;;;;;;;27.68;40.06;99899.88;7735289;32;37354;-78
2023/06/25 09:05:55;;;;;;;4.95;2.10;;;;;;;27.54;36.94;99897.75;7734021;32;39983;-79
2023/06/25 09:10:12;;;;;;;3.22;1.95;;;;;;;27.64;37.56;99892.63;7735545;32;40043;-79
2023/06/25 09:14:31;;;;;;;2.47;1.70;;;;;;;27.61;36.53;99893.38;7709718;32;37777;-79
2023/06/25 09:18:48;;;;;;;3.67;2.00;;;;;;;27.68;36.83;99897.06;7737338;32;37775;-79
2023/06/25 09:23:05;;;;;;;6.93;2.50;;;;;;;27.59;35.73;99893.78;7738048;32;39127;-80
2023/06/25 09:27:21;;;;;;;2.60;1.58;;;;;;;27.72;37.41;99888.72;7737945;32;40768;-80
2023/06/25 09:31:40;;;;;;;5.12;2.15;;;;;;;28.04;35.48;99883.38;7724196;32;38682;-79
2023/06/25 09:36:03;;;;;;;3.12;1.70;;;;;;;28.35;34.88;99880.41;7724524;32;37005;-80
2023/06/25 09:40:39;;;;;;;4.57;2.05;;;;;;;28.83;35.69;99874.69;7737558;32;40601;-80
2023/06/25 09:44:55;;;;;;;3.30;1.92;;;;;;;28.95;33.02;99884.75;7723735;32;39842;-80
2023/06/25 09:49:13;;;;;;;3.72;1.65;;;;;;;28.99;33.21;99874.34;7737925;32;38037;-79
2023/06/25 09:53:31;;;;;;;3.33;1.87;;;;;;;29.05;31.92;99869.97;7737344;32;37094;-80
2023/06/25 09:57:48;;;;;;;4.10;1.85;;;;;;;28.63;33.91;99862.97;7724142;32;39380;-79
2023/06/25 10:02:07;;;;;;;3.15;2.15;;;;;;;28.97;31.27;99865.53;7723847;32;39815;-78
2023/06/25 10:06:23;;;;;;;5.07;1.77;;;;;;;29.44;31.32;99862.88;7737368;32;38675;-79
2023/06/25 10:10:39;;;;;;;3.12;1.85;;;;;;;29.30;29.94;99863.63;7723503;32;37796;-79
2023/06/25 10:14:59;;;;;;;3.28;1.75;;;;;;;28.75;31.64;99859.84;7735533;32;39015;-79
2023/06/25 10:19:21;;;;;;;3.30;1.80;;;;;;;28.60;32.81;99852.56;7723044;32;39980;-79
2023/06/25 10:23:37;;;;;;;2.50;1.70;;;;;;;28.73;32.44;99867.81;7737015;32;38704;-79
2023/06/25 10:28:05;;;;;;;2.20;1.52;;;;;;;29.00;36.06;99870.34;7736865;32;37204;-79
2023/06/25 10:32:29;;;;;;;3.37;1.80;;;;;;;29.21;33.34;99870.44;7736985;32;39466;-80
2023/06/25 10:36:50;;;;;;;2.72;1.95;;;;;;;28.83;33.69;99855.84;7736718;32;40018;-80
2023/06/25 10:41:07;;;;;;;3.58;1.98;;;;;;;29.30;35.00;99855.22;7736727;32;36993;-79
2023/06/25 10:45:23;;;;;;;4.05;1.70;;;;;;;29.93;35.09;99847.28;7708028;32;37919;-79
2023/06/25 10:49:40;;;;;;;3.78;2.08;;;;;;;30.20;31.33;99847.66;7708502;32;39221;-79
2023/06/25 10:53:56;;;;;;;3.33;1.87;;;;;;;30.55;33.96;99843.16;7734848;32;40469;-80
2023/06/25 10:58:20;;;;;;;5.18;1.80;;;;;;;30.70;31.55;99839.09;7736381;32;38010;-79
2023/06/25 11:02:37;;;;;;;2.53;1.58;;;;;;;31.08;29.82;99835.72;7736180;32;37120;-79
2023/06/25 11:06:53;;;;;;;5.00;1.92;;;;;;;30.84;29.68;99845.88;7735884;32;39344;-80
2023/06/25 11:11:10;;;;;;;3.60;1.70;;;;;;;30.22;32.88;99834.00;7735897;32;40921;-79
2023/06/25 11:15:32;;;;;;;2.35;1.55;;;;;;;29.57;35.98;99841.63;7721905;32;37882;-80
2023/06/25 11:19:54;;;;;;;2.05;1.33;;;;;;;28.53;33.96;99835.63;7722393;32;37823;-80
2023/06/25 11:24:12;;;;;;;3.10;1.70;;;;;;;28.59;35.64;99834.09;7722057;32;40290;-80
2023/06/25 11:28:29;;;;;;;2.10;1.60;;;;;;;29.23;36.66;99833.53;7724498;32;40858;-79
2023/06/25 11:32:45;;;;;;;3.47;1.80;;;;;;;28.79;35.56;99838.22;7725212;32;37878;-80
2023/06/25 11:37:11;;;;;;;3.67;1.70;;;;;;;28.65;37.69;99826.94;7738791;32;37052;-79
2023/06/25 11:41:28;;;;;;;2.83;2.00;;;;;;;28.62;36.26;99825.72;7712647;32;39392;-79
2023/06/25 11:45:44;;;;;;;4.55;2.40;;;;;;;29.01;37.97;99818.63;7712398;32;39738;-79
2023/06/25 11:50:02;;;;;;;3.97;1.95;;;;;;;29.09;37.60;99822.25;7712046;32;37873;-79
2023/06/25 11:54:18;;;;;;;2.92;1.80;;;;;;;28.67;36.89;99813.31;7712723;32;38177;-79
2023/06/25 11:58:34;;;;;;;5.60;2.08;;;;;;;28.45;37.07;99813.19;7712434;32;39103;-79
2023/06/25 12:02:51;;;;;;;2.97;1.80;;;;;;;28.50;37.17;99800.78;7722886;32;40743;-79
2023/06/25 12:07:07;;;;;;;4.22;3.08;;;;;;;28.96;37.21;99796.56;7738955;32;38073;-79
2023/06/25 12:11:24;;;;;;;3.92;1.92;;;;;;;28.58;37.36;99794.06;7738842;32;37565;-80
2023/06/25 12:15:40;;;;;;;3.67;1.70;;;;;;;29.25;35.70;99779.81;7725198;32;39263;-79
2023/06/25 12:19:56;;;;;;;2.70;1.80;;;;;;;28.99;36.80;99784.56;7738792;32;40843;-79
2023/06/25 12:24:13;;;;;;;1.85;1.50;;;;;;;29.90;34.83;99781.44;7738414;32;38789;-78
2023/06/25 12:28:30;;;;;;;2.78;1.65;;;;;;;29.37;35.70;99779.41;7738588;32;37736;-79
2023/06/25 12:32:46;;;;;;;3.60;1.60;;;;;;;28.34;36.54;99783.47;7738021;32;40190;-79
2023/06/25 12:37:02;;;;;;;2.53;1.50;;;;;;;28.47;37.31;99785.53;7737580;32;40780;-79
2023/06/25 12:41:19;;;;;;;3.75;1.80;;;;;;;29.34;35.71;99780.25;7736726;32;38649;-78
2023/06/25 12:45:35;;;;;;;2.08;1.50;;;;;;;29.02;35.31;99778.94;7738611;32;37942;-80
2023/06/25 12:49:52;;;;;;;2.25;1.60;;;;;;;29.95;34.94;99761.34;7738567;32;39468;-80
2023/06/25 12:54:08;;;;;;;2.87;1.80;;;;;;;30.29;36.07;99758.06;7738354;32;41013;-79
2023/06/25 12:58:24;;;;;;;3.85;1.90;;;;;;;30.65;33.37;99752.31;7738434;32;37562;-80
2023/06/25 13:02:40;;;;;;;4.28;2.05;;;;;;;30.95;32.83;99748.13;7737970;32;37022;-80
2023/06/25 13:06:57;;;;;;;4.35;2.17;;;;;;;30.05;34.17;99742.06;7738030;32;40166;-79
2023/06/25 13:11:13;;;;;;;5.37;2.10;;;;;;;30.45;35.52;99749.16;7738272;32;40750;-79
2023/06/25 13:15:31;;;;;;;2.05;1.70;;;;;;;30.37;34.36;99738.38;7738062;32;38718;-80
2023/06/25 13:19:48;;;;;;;2.33;1.60;;;;;;;30.32;33.63;99733.94;7738287;32;37204;-80
2023/06/25 13:24:05;;;;;;;3.40;1.90;;;;;;;29.57;34.61;99746.94;7738278;32;39958;-80
2023/06/25 13:28:21;;;;;;;7.80;2.12;;;;;;;29.59;35.80;99736.09;7737966;32;40035;-80
2023/06/25 13:32:37;;;;;;;3.53;2.35;;;;;;;30.19;35.02;99730.78;7737773;32;38681;-80
2023/06/25 13:36:54;;;;;;;4.22;2.10;;;;;;;30.65;34.48;99717.72;7737987;32;37818;-80
2023/06/25 13:41:10;;;;;;;5.07;1.62;;;;;;;30.19;34.13;99718.75;7738026;32;39231;-80
2023/06/25 13:45:27;;;;;;;3.05;1.80;;;;;;;30.79;34.79;99714.84;7737855;32;39944;-80
2023/06/25 13:49:43;;;;;;;3.53;1.87;;;;;;;30.73;33.17;99702.41;7737199;32;38601;-80
2023/06/25 13:53:59;;;;;;;3.00;2.00;;;;;;;30.40;32.96;99707.41;7709264;32;38304;-80
2023/06/25 13:58:16;;;;;;;2.95;2.00;;;;;;;29.97;34.21;99701.94;7710926;32;39770;-80
2023/06/25 14:02:32;;;;;;;3.75;2.45;;;;;;;30.13;34.39;99699.47;7709402;32;40771;-79
2023/06/25 14:06:54;;;;;;;5.78;2.50;;;;;;;30.12;35.69;99705.50;7709614;32;37888;-79
2023/06/25 14:11:11;;;;;;;3.83;2.22;;;;;;;29.61;32.94;99696.37;7710451;32;37113;-79
2023/06/25 14:15:27;;;;;;;3.15;1.92;;;;;;;30.17;32.76;99693.84;7709378;32;40237;-79
2023/06/25 14:19:44;;;;;;;3.65;2.20;;;;;;;30.51;32.26;99684.84;7709009;32;40800;-79
2023/06/25 14:24:00;;;;;;;4.35;2.12;;;;;;;30.56;33.68;99687.22;7709150;32;37666;-79
2023/06/25 14:28:20;;;;;;;3.03;1.83;;;;;;;30.19;32.69;99685.00;7709436;32;37651;-77
2023/06/25 14:32:48;;;;;;;3.78;2.05;;;;;;;29.47;34.69;99685.97;7699529;32;39094;-80
2023/06/25 14:37:05;;;;;;;4.15;2.12;;;;;;;29.92;34.63;99688.31;7709900;32;40366;-81
2023/06/25 14:41:21;;;;;;;1.90;1.50;;;;;;;30.17;33.65;99681.78;7709029;32;38010;-81
2023/06/25 14:45:37;;;;;;;4.30;2.15;;;;;;;29.99;33.20;99674.22;7709735;32;37869;-80
2023/06/25 14:49:54;;;;;;;2.65;1.58;;;;;;;30.14;33.13;99669.34;7709827;32;39388;-79
2023/06/25 14:54:10;;;;;;;3.35;1.67;;;;;;;29.71;32.67;99661.03;7709788;32;39890;-79
2023/06/25 14:58:26;;;;;;;3.78;2.05;;;;;;;30.14;32.03;99660.91;7709170;32;38501;-79
2023/06/25 15:02:42;;;;;;;8.07;1.80;;;;;;;30.77;32.92;99654.56;7707946;32;36834;-80
2023/06/25 15:06:59;;;;;;;3.40;1.80;;;;;;;30.68;33.24;99655.03;7712905;32;39851;-80
2023/06/25 15:11:16;;;;;;;2.75;1.83;;;;;;;31.14;31.32;99653.09;7712674;32;39967;-79
2023/06/25 15:15:32;;;;;;;3.42;1.80;;;;;;;30.91;30.61;99651.66;7712600;32;37951;-80
2023/06/25 15:19:49;;;;;;;2.42;1.80;;;;;;;30.64;30.84;99655.03;7709482;32;36725;-79
2023/06/25 15:24:06;;;;;;;6.22;1.90;;;;;;;30.85;31.59;99645.63;7709454;32;39423;-81
2023/06/25 15:28:23;;;;;;;5.20;2.10;;;;;;;30.48;31.60;99644.31;7710430;32;40065;-80
2023/06/25 15:32:40;;;;;;;2.55;1.73;;;;;;;31.04;30.38;99633.06;7710542;32;39512;-79
2023/06/25 15:36:56;;;;;;;4.93;2.08;;;;;;;30.89;29.79;99638.00;7709226;32;36724;-81
2023/06/25 15:41:13;;;;;;;5.47;1.92;;;;;;;30.73;29.24;99634.09;7705635;32;39288;-81
2023/06/25 15:45:29;;;;;;;3.75;1.80;;;;;;;31.00;29.70;99623.84;7703162;32;39967;-81
2023/06/25 15:49:45;;;;;;;1.92;1.60;;;;;;;30.62;29.71;99628.56;7708377;32;38800;-80
2023/06/25 15:54:01;;;;;;;4.18;1.95;;;;;;;30.84;29.36;99623.56;7735290;32;37010;-81
2023/06/25 15:58:33;;;;;;;2.40;1.70;;;;;;;30.35;30.09;99626.28;7736727;32;39264;-80
2023/06/25 16:02:49;;;;;;;4.72;2.00;;;;;;;30.66;30.83;99630.09;7738101;32;40552;-80
2023/06/25 16:07:05;;;;;;;7.18;1.95;;;;;;;30.52;29.73;99624.59;7738667;32;37921;-80
2023/06/25 16:11:23;;;;;;;3.03;1.90;;;;;;;31.06;28.73;99616.56;7738913;32;37321;-80
2023/06/25 16:15:39;;;;;;;2.83;1.60;;;;;;;30.50;29.66;99615.78;7738190;32;39639;-80
2023/06/25 16:19:56;;;;;;;3.03;1.80;;;;;;;30.51;29.00;99620.16;7729350;32;40016;-81
2023/06/25 16:24:26;;;;;;;2.65;1.92;;;;;;;30.48;30.32;99623.81;7723174;32;37632;-81
2023/06/25 16:28:43;;;;;;;2.97;1.70;;;;;;;30.57;29.85;99609.31;7738342;32;36982;-81
2023/06/25 16:33:00;;;;;;;3.33;2.08;;;;;;;30.23;30.18;99605.03;7737345;32;39331;-83
2023/06/25 16:37:17;;;;;;;3.55;1.85;;;;;;;29.99;29.63;99603.19;7736697;32;40011;-79
2023/06/25 16:41:34;;;;;;;5.07;2.40;;;;;;;29.95;30.95;99595.56;7734405;32;38736;-79
2023/06/25 16:45:50;;;;;;;4.15;2.40;;;;;;;30.10;30.04;99599.09;7733675;32;36715;-78
2023/06/25 16:50:07;;;;;;;4.28;2.40;;;;;;;30.02;29.69;99596.75;7735737;32;38867;-79
2023/06/25 16:54:23;;;;;;;3.20;2.10;;;;;;;30.19;29.48;99589.44;7733291;32;40819;-80
2023/06/25 16:58:39;;;;;;;8.93;2.75;;;;;;;30.07;29.93;99587.88;7729246;32;38324;-80
2023/06/25 17:02:57;;;;;;;4.30;2.42;;;;;;;30.10;29.20;99592.69;7736326;32;36046;-81
2023/06/25 17:07:13;;;;;;;5.07;2.65;;;;;;;29.53;30.53;99597.31;7721782;32;39446;-79
2023/06/25 17:11:29;;;;;;;3.65;2.50;;;;;;;29.52;30.18;99598.50;7722293;32;39969;-80
2023/06/25 17:15:46;;;;;;;5.37;2.80;;;;;;;29.10;31.04;99602.19;7737298;32;38636;-81
2023/06/25 17:20:03;;;;;;;6.57;2.70;;;;;;;28.98;31.58;99614.63;7727723;32;37135;-81
2023/06/25 17:24:19;;;;;;;7.00;3.00;;;;;;;29.00;31.84;99609.41;7737115;32;40147;-79
2023/06/25 17:28:35;;;;;;;7.85;4.45;;;;;;;28.92;32.20;99607.78;7737884;32;40834;-81
2023/06/25 17:32:52;;;;;;;5.50;3.12;;;;;;;29.14;32.77;99600.94;7737710;32;37957;-80
2023/06/25 17:37:09;;;;;;;4.85;3.00;;;;;;;28.92;32.89;99610.59;7730749;32;38164;-82
2023/06/25 17:41:25;;;;;;;9.65;3.08;;;;;;;29.23;32.23;99602.59;7723128;32;40123;-82
2023/06/25 17:45:41;;;;;;;5.25;3.15;;;;;;;28.92;33.59;99604.97;7730051;32;40006;-83
2023/06/25 17:49:57;;;;;;;7.70;3.17;;;;;;;29.15;33.34;99608.19;7721506;32;38811;-84
2023/06/25 17:54:14;;;;;;;5.25;2.92;;;;;;;28.80;33.66;99609.81;7734578;32;37817;-83
2023/06/25 17:58:31;;;;;;;5.80;3.03;;;;;;;28.70;34.42;99602.19;7729523;32;40178;-85
2023/06/25 18:02:48;;;;;;;4.68;2.90;;;;;;;28.76;35.13;99600.56;7734099;32;40047;-83
2023/06/25 18:07:08;;;;;;;5.70;3.28;;;;;;;28.47;35.68;99608.12;7734590;32;37388;-83
2023/06/25 18:11:25;;;;;;;4.80;3.00;;;;;;;28.54;35.59;99610.94;7730751;32;37879;-83
2023/06/25 18:15:42;;;;;;;5.05;3.08;;;;;;;28.13;36.94;99610.44;7733344;32;40136;-82
2023/06/25 18:19:59;;;;;;;6.25;3.50;;;;;;;28.21;36.82;99612.87;7733905;32;40022;-81
2023/06/25 18:24:17;;;;;;;6.95;3.50;;;;;;;28.13;37.38;99616.03;7732428;32;37866;-80
2023/06/25 18:28:36;;;;;;;10.60;3.42;;;;;;;28.03;37.27;99617.63;7733736;32;37105;-80
2023/06/25 18:32:52;;;;;;;8.35;3.87;;;;;;;27.93;38.24;99624.78;7733403;32;40221;-79
2023/06/25 18:37:09;;;;;;;7.00;3.47;;;;;;;27.76;39.48;99614.28;7733504;32;39645;-79
2023/06/25 18:41:26;;;;;;;6.37;3.42;;;;;;;27.68;39.94;99619.84;7736743;32;38767;-79
2023/06/25 18:45:42;;;;;;;7.05;3.47;;;;;;;27.47;40.06;99619.72;7737122;32;37216;-80
2023/06/25 18:49:58;;;;;;;6.03;3.03;;;;;;;27.38;40.28;99622.88;7736532;32;39135;-81
2023/06/25 18:54:15;;;;;;;6.80;3.22;;;;;;;27.16;40.21;99617.09;7725781;32;41598;-81
2023/06/25 18:58:31;;;;;;;8.48;3.58;;;;;;;26.98;40.85;99625.34;7738521;32;38052;-79
2023/06/25 19:02:47;;;;;;;7.28;3.33;;;;;;;27.00;39.25;99630.56;7738057;32;37315;-80
2023/06/25 19:07:04;;;;;;;6.00;3.10;;;;;;;26.78;40.11;99635.16;7739469;32;39420;-80
2023/06/25 19:11:21;;;;;;;6.05;3.72;;;;;;;26.50;40.50;99642.06;7738999;32;39961;-80
2023/06/25 19:15:37;;;;;;;7.75;4.07;;;;;;;26.38;40.09;99648.72;7738965;32;38157;-77
2023/06/25 19:19:54;;;;;;;6.50;3.45;;;;;;;26.18;40.47;99652.88;7734077;32;36934;-77
2023/06/25 19:24:10;;;;;;;5.85;3.40;;;;;;;26.11;40.91;99653.56;7739414;32;39415;-77
2023/06/25 19:28:26;;;;;;;10.90;3.90;;;;;;;25.94;41.30;99642.97;7738853;32;40779;-77
2023/06/25 19:32:42;;;;;;;15.95;5.40;;;;;;;25.84;41.61;99650.03;7724070;32;38497;-76
2023/06/25 19:37:00;;;;;;;14.95;9.73;;;;;;;25.74;41.52;99651.50;7712454;32;37010;-78
2023/06/25 19:41:16;;;;;;;9.77;5.57;;;;;;;25.67;41.62;99645.81;7730635;32;39992;-77
2023/06/25 19:45:32;;;;;;;8.68;4.43;;;;;;;25.58;42.23;99650.87;7721830;32;39561;-78
2023/06/25 19:49:49;;;;;;;8.50;4.35;;;;;;;25.51;42.53;99665.53;7732888;32;37915;-78
2023/06/25 19:54:05;;;;;;;10.43;5.40;;;;;;;25.39;42.25;99658.19;7734179;32;37053;-78
2023/06/25 19:58:22;;;;;;;11.25;4.45;;;;;;;25.28;42.68;99663.59;7738110;32;40083;-78
2023/06/25 20:02:38;;;;;;;8.40;5.05;;;;;;;25.19;43.10;99665.00;7735533;32;40011;-81
2023/06/25 20:06:55;;;;;;;8.32;4.93;;;;;;;25.21;42.70;99662.62;7735962;32;37912;-82